Time;durP1;ratioP1;P1;durP2;ratioP2;P2;SDS_P1;SDS_P2;PMS_P1;PMS_P2;Temp;Humidity;BMP_temperature;BMP_pressure;BME280_temperature;BME280_humidity;BME280_pressure;Samples;Min_cycle;Max_cycle;Signal;HPM_P1;HPM_P2
2022/11/11 00:01:53;;;;;;;0.40;0.40;;;;;;;;;;7382303;19;20121;-71
2022/11/11 00:04:18;;;;;;;0.30;0.30;;;;;;;;;;7375184;19;20145;-71
2022/11/11 00:06:45;;;;;;;0.20;0.20;;;;;;;;;;7369663;19;20167;-71
2022/11/11 00:09:11;;;;;;;0.20;0.20;;;;;;;;;;7373982;19;20109;-70
2022/11/11 00:11:36;;;;;;;0.20;0.20;;;;;;;;;;7369980;19;20145;-69
2022/11/11 00:14:01;;;;;;;0.30;0.30;;;;;;;;;;7365931;19;20866;-71
2022/11/11 00:25:04;;;;;;;0.30;0.30;;;;;;;;;;7379212;19;20125;-71
2022/11/11 00:27:24;;;;;;;0.20;0.20;;;;;;;;;;7381796;19;20152;-71
2022/11/11 00:29:49;;;;;;;0.20;0.20;;;;;;;;;;7380999;19;20109;-69
2022/11/11 00:32:29;;;;;;;0.30;0.30;;;;;;;;;;7383766;19;20140;-70
2022/11/11 00:37:41;;;;;;;0.30;0.30;;;;;;;;;;7385594;19;20749;-71
2022/11/11 00:40:08;;;;;;;0.23;0.23;;;;;;;;;;7382448;19;20613;-70
2022/11/11 00:42:33;;;;;;;0.30;0.30;;;;;;;;;;7384366;19;20469;-71
2022/11/11 00:44:59;;;;;;;0.20;0.20;;;;;;;;;;7386576;19;20122;-70
2022/11/11 00:52:58;;;;;;;0.20;0.20;;;;;;;;;;7387285;19;20123;-71
2022/11/11 00:55:23;;;;;;;0.47;0.47;;;;;;;;;;7378883;19;20121;-69
2022/11/11 00:57:49;;;;;;;0.20;0.20;;;;;;;;;;7387297;19;20337;-70
2022/11/11 01:00:14;;;;;;;0.33;0.33;;;;;;;;;;7389595;19;20105;-71
2022/11/11 01:02:39;;;;;;;0.37;0.37;;;;;;;;;;7385338;19;20125;-70
2022/11/11 01:05:05;;;;;;;0.20;0.20;;;;;;;;;;7384600;19;20140;-71
2022/11/11 01:07:30;;;;;;;0.20;0.20;;;;;;;;;;7389527;19;20117;-70
2022/11/11 01:09:56;;;;;;;0.30;0.30;;;;;;;;;;7385595;19;20133;-71
2022/11/11 01:12:21;;;;;;;0.20;0.20;;;;;;;;;;7386537;19;20112;-71
2022/11/11 01:14:46;;;;;;;0.30;0.30;;;;;;;;;;7385415;19;20154;-70
2022/11/11 01:17:12;;;;;;;0.20;0.20;;;;;;;;;;7382313;19;20490;-71
2022/11/11 01:19:37;;;;;;;0.43;0.43;;;;;;;;;;7385254;19;20465;-70
2022/11/11 01:22:03;;;;;;;0.20;0.20;;;;;;;;;;7385206;19;20144;-71
2022/11/11 01:24:28;;;;;;;0.30;0.30;;;;;;;;;;7384454;19;20109;-70
2022/11/11 01:26:53;;;;;;;0.30;0.30;;;;;;;;;;7375885;19;20160;-69
2022/11/11 01:29:19;;;;;;;0.20;0.20;;;;;;;;;;7369348;19;20109;-69
2022/11/11 01:31:44;;;;;;;0.30;0.30;;;;;;;;;;7378193;19;20121;-71
2022/11/11 01:34:10;;;;;;;0.30;0.30;;;;;;;;;;7380489;19;20605;-70
2022/11/11 01:36:35;;;;;;;0.30;0.30;;;;;;;;;;7370692;19;20157;-70
2022/11/11 01:39:00;;;;;;;0.30;0.30;;;;;;;;;;7367656;19;20117;-70
2022/11/11 01:41:32;;;;;;;0.30;0.30;;;;;;;;;;7378221;19;20121;-70
2022/11/11 01:44:11;;;;;;;0.97;0.80;;;;;;;;;;7372730;19;20101;-68
2022/11/11 01:46:37;;;;;;;0.30;0.30;;;;;;;;;;7373061;19;20129;-71
2022/11/11 01:49:20;;;;;;;0.30;0.30;;;;;;;;;;7363835;19;20490;-70
2022/11/11 01:51:53;;;;;;;4.63;1.00;;;;;;;;;;7375673;19;20109;-70
2022/11/11 01:54:50;;;;;;;0.30;0.30;;;;;;;;;;7367079;19;20133;-71
2022/11/11 01:57:24;;;;;;;0.30;0.30;;;;;;;;;;7366636;19;20105;-70
2022/11/11 01:59:59;;;;;;;0.30;0.30;;;;;;;;;;7377128;19;20125;-70
2022/11/11 02:02:29;;;;;;;0.30;0.30;;;;;;;;;;7380109;19;20105;-71
2022/11/11 02:07:39;;;;;;;0.20;0.20;;;;;;;;;;7385170;19;20143;-71
2022/11/11 02:10:06;;;;;;;0.40;0.40;;;;;;;;;;7386237;19;20101;-70
2022/11/11 02:15:15;;;;;;;0.20;0.20;;;;;;;;;;7383592;19;20618;-70
2022/11/11 02:17:44;;;;;;;0.30;0.30;;;;;;;;;;7385478;19;20177;-70
2022/11/11 02:20:10;;;;;;;0.30;0.30;;;;;;;;;;7384452;19;20575;-70
2022/11/11 02:22:56;;;;;;;0.40;0.40;;;;;;;;;;7383633;19;20111;-69
2022/11/11 02:25:24;;;;;;;0.30;0.30;;;;;;;;;;7383893;19;20148;-70
2022/11/11 02:27:51;;;;;;;0.20;0.20;;;;;;;;;;7381269;19;20591;-70
2022/11/11 02:30:18;;;;;;;0.30;0.30;;;;;;;;;;7385584;19;20109;-71
2022/11/11 02:32:46;;;;;;;0.47;0.47;;;;;;;;;;7378952;19;20133;-71
2022/11/11 02:35:33;;;;;;;0.57;0.57;;;;;;;;;;7377434;19;20132;-69
2022/11/11 02:38:12;;;;;;;0.20;0.20;;;;;;;;;;7383140;19;20117;-71
2022/11/11 02:41:55;;;;;;;0.20;0.20;;;;;;;;;;7386265;19;20113;-70
2022/11/11 02:43:30;;;;;;;0.30;0.30;;;;;;;;;;7382076;19;20125;-71
2022/11/11 02:45:56;;;;;;;0.30;0.30;;;;;;;;;;7386430;19;20128;-70
2022/11/11 02:48:22;;;;;;;0.20;0.20;;;;;;;;;;7383211;19;20458;-69
2022/11/11 02:50:47;;;;;;;0.20;0.20;;;;;;;;;;7384230;19;20125;-71
2022/11/11 02:53:12;;;;;;;0.40;0.40;;;;;;;;;;7384074;19;20459;-70
2022/11/11 02:55:38;;;;;;;0.30;0.30;;;;;;;;;;7384100;19;20188;-70
2022/11/11 02:58:03;;;;;;;0.30;0.30;;;;;;;;;;7387285;19;20473;-70
2022/11/11 03:00:28;;;;;;;0.20;0.20;;;;;;;;;;7382797;19;20125;-69
2022/11/11 03:02:54;;;;;;;0.30;0.30;;;;;;;;;;7384018;19;20109;-70
2022/11/11 03:05:19;;;;;;;0.20;0.20;;;;;;;;;;7381540;19;20177;-70
2022/11/11 03:07:45;;;;;;;0.30;0.30;;;;;;;;;;7383324;19;20151;-70
2022/11/11 03:10:10;;;;;;;0.77;0.77;;;;;;;;;;7380789;19;20172;-70
2022/11/11 03:12:36;;;;;;;0.30;0.30;;;;;;;;;;7384403;19;20113;-70
2022/11/11 03:15:01;;;;;;;0.30;0.30;;;;;;;;;;7383180;19;20172;-71
2022/11/11 03:17:39;;;;;;;0.20;0.20;;;;;;;;;;7384295;19;20185;-71
2022/11/11 03:23:25;;;;;;;0.20;0.20;;;;;;;;;;7379557;19;20126;-70
2022/11/11 03:25:50;;;;;;;0.73;0.73;;;;;;;;;;7377682;19;20607;-70
2022/11/11 03:28:17;;;;;;;0.30;0.30;;;;;;;;;;7380467;19;20105;-70
2022/11/11 03:30:47;;;;;;;0.30;0.30;;;;;;;;;;7383700;19;20109;-70
2022/11/11 03:33:13;;;;;;;0.30;0.30;;;;;;;;;;7378116;19;20588;-69
2022/11/11 03:35:40;;;;;;;0.30;0.30;;;;;;;;;;7383307;19;20125;-71
2022/11/11 03:38:23;;;;;;;0.30;0.30;;;;;;;;;;7382668;19;20176;-70
2022/11/11 03:40:53;;;;;;;0.30;0.30;;;;;;;;;;7375528;19;20121;-70
2022/11/11 03:43:20;;;;;;;0.20;0.20;;;;;;;;;;7379066;19;20221;-70
2022/11/11 03:45:46;;;;;;;0.30;0.30;;;;;;;;;;7378760;19;20152;-70
2022/11/11 03:48:11;;;;;;;0.30;0.30;;;;;;;;;;7383401;19;20109;-71
2022/11/11 03:50:37;;;;;;;0.30;0.30;;;;;;;;;;7378358;19;20108;-68
2022/11/11 03:53:02;;;;;;;0.30;0.30;;;;;;;;;;7379340;19;20347;-70
2022/11/11 03:55:28;;;;;;;0.30;0.30;;;;;;;;;;7381161;19;20153;-70
2022/11/11 03:57:54;;;;;;;0.20;0.20;;;;;;;;;;7375679;19;20614;-70
2022/11/11 04:00:21;;;;;;;0.20;0.20;;;;;;;;;;7373158;19;20105;-70
2022/11/11 04:11:08;;;;;;;0.20;0.20;;;;;;;;;;7385094;19;20472;-70
2022/11/11 04:16:18;;;;;;;0.20;0.20;;;;;;;;;;7387168;19;20148;-70
2022/11/11 04:21:42;;;;;;;0.20;0.20;;;;;;;;;;7390602;19;20587;-71
2022/11/11 04:27:04;;;;;;;0.30;0.30;;;;;;;;;;7388429;19;20133;-70
2022/11/11 04:29:30;;;;;;;0.50;0.50;;;;;;;;;;7387084;19;20098;-71
2022/11/11 04:34:54;;;;;;;0.30;0.30;;;;;;;;;;7387060;19;20595;-70
2022/11/11 04:37:20;;;;;;;0.20;0.20;;;;;;;;;;7389870;19;20109;-71
2022/11/11 04:42:30;;;;;;;0.30;0.30;;;;;;;;;;7390849;19;20126;-69
2022/11/11 04:47:59;;;;;;;0.20;0.20;;;;;;;;;;7389135;19;20206;-69
2022/11/11 04:50:27;;;;;;;0.30;0.30;;;;;;;;;;7389231;19;20109;-71
2022/11/11 04:52:53;;;;;;;0.20;0.20;;;;;;;;;;7387727;19;20102;-69
2022/11/11 04:58:03;;;;;;;0.30;0.30;;;;;;;;;;7389018;19;20133;-70
2022/11/11 05:00:28;;;;;;;0.30;0.30;;;;;;;;;;7385098;19;20105;-71
2022/11/11 05:11:06;;;;;;;0.20;0.20;;;;;;;;;;7383543;19;20511;-69
2022/11/11 05:21:50;;;;;;;1.27;1.27;;;;;;;;;;7386005;19;20145;-71
2022/11/11 05:26:59;;;;;;;0.20;0.20;;;;;;;;;;7384978;19;20151;-71
2022/11/11 05:29:24;;;;;;;0.30;0.30;;;;;;;;;;7387210;19;20117;-71
2022/11/11 05:31:50;;;;;;;0.30;0.30;;;;;;;;;;7386461;19;20463;-70
2022/11/11 05:34:15;;;;;;;0.20;0.20;;;;;;;;;;7386957;19;20102;-71
2022/11/11 05:36:40;;;;;;;0.50;0.50;;;;;;;;;;7383616;19;20144;-70
2022/11/11 05:39:06;;;;;;;0.20;0.20;;;;;;;;;;7386167;19;20449;-71
2022/11/11 05:41:31;;;;;;;0.20;0.20;;;;;;;;;;7384168;19;20134;-70
2022/11/11 05:43:56;;;;;;;0.30;0.30;;;;;;;;;;7383249;19;20253;-71
2022/11/11 05:46:21;;;;;;;0.20;0.20;;;;;;;;;;7384121;19;20584;-70
2022/11/11 05:51:31;;;;;;;0.20;0.20;;;;;;;;;;7383211;19;20143;-71
2022/11/11 05:53:56;;;;;;;1.77;0.50;;;;;;;;;;7382369;19;20571;-71
2022/11/11 05:56:22;;;;;;;0.20;0.20;;;;;;;;;;7381590;19;20152;-71
2022/11/11 05:58:47;;;;;;;0.20;0.20;;;;;;;;;;7381658;19;20105;-70
2022/11/11 06:01:12;;;;;;;0.20;0.20;;;;;;;;;;7381974;19;20564;-70
2022/11/11 06:03:38;;;;;;;0.67;0.67;;;;;;;;;;7386559;19;20124;-71
2022/11/11 06:06:03;;;;;;;0.30;0.30;;;;;;;;;;7383902;19;20473;-70
2022/11/11 06:08:28;;;;;;;0.40;0.40;;;;;;;;;;7378475;19;20204;-70
2022/11/11 06:10:54;;;;;;;0.23;0.23;;;;;;;;;;7380593;19;20114;-69
2022/11/11 06:13:19;;;;;;;0.30;0.30;;;;;;;;;;7385002;19;20137;-70
2022/11/11 06:15:44;;;;;;;0.30;0.30;;;;;;;;;;7385214;19;20112;-70
2022/11/11 06:18:09;;;;;;;0.40;0.40;;;;;;;;;;7384960;19;20113;-71
2022/11/11 06:20:35;;;;;;;0.20;0.20;;;;;;;;;;7386796;19;20124;-69
2022/11/11 06:23:01;;;;;;;0.30;0.30;;;;;;;;;;7380534;19;20457;-70
2022/11/11 06:28:16;;;;;;;0.20;0.20;;;;;;;;;;7377650;19;20116;-70
2022/11/11 06:30:41;;;;;;;0.30;0.30;;;;;;;;;;7379256;19;20113;-68
2022/11/11 06:33:07;;;;;;;0.30;0.30;;;;;;;;;;7375524;19;20598;-71
2022/11/11 06:35:36;;;;;;;0.20;0.20;;;;;;;;;;7383171;19;20160;-70
2022/11/11 06:38:03;;;;;;;0.30;0.30;;;;;;;;;;7383553;19;20113;-70
2022/11/11 06:40:29;;;;;;;0.30;0.30;;;;;;;;;;7383008;19;20113;-71
2022/11/11 06:42:58;;;;;;;0.30;0.30;;;;;;;;;;7385765;19;20148;-69
2022/11/11 06:45:24;;;;;;;0.30;0.30;;;;;;;;;;7384513;19;20477;-70
2022/11/11 06:47:49;;;;;;;0.30;0.30;;;;;;;;;;7385600;19;20125;-70
2022/11/11 06:50:15;;;;;;;0.30;0.30;;;;;;;;;;7382263;19;20636;-71
2022/11/11 06:52:40;;;;;;;1.03;1.03;;;;;;;;;;7382528;19;20122;-70
2022/11/11 06:55:06;;;;;;;0.60;0.60;;;;;;;;;;7385567;19;20575;-70
2022/11/11 06:57:32;;;;;;;0.27;0.27;;;;;;;;;;7383717;19;20460;-69
2022/11/11 06:59:57;;;;;;;0.37;0.37;;;;;;;;;;7365766;19;20110;-69
2022/11/11 07:02:22;;;;;;;0.20;0.20;;;;;;;;;;7367498;19;20229;-70
2022/11/11 07:04:47;;;;;;;0.30;0.30;;;;;;;;;;7376223;19;20113;-69
2022/11/11 07:07:13;;;;;;;0.30;0.30;;;;;;;;;;7380089;19;20981;-70
2022/11/11 07:09:38;;;;;;;0.20;0.20;;;;;;;;;;7384357;19;20121;-70
2022/11/11 07:12:05;;;;;;;0.30;0.30;;;;;;;;;;7384961;19;20113;-70
2022/11/11 07:14:31;;;;;;;0.20;0.20;;;;;;;;;;7385671;19;20101;-68
2022/11/11 07:16:57;;;;;;;0.30;0.30;;;;;;;;;;7381885;19;20161;-69
2022/11/11 07:19:22;;;;;;;0.30;0.30;;;;;;;;;;7377888;19;20101;-70
2022/11/11 07:21:47;;;;;;;0.30;0.30;;;;;;;;;;7379070;19;20214;-70
2022/11/11 07:24:12;;;;;;;0.50;0.50;;;;;;;;;;7381428;19;20116;-70
2022/11/11 07:26:38;;;;;;;0.20;0.20;;;;;;;;;;7381388;19;20121;-69
2022/11/11 07:29:03;;;;;;;0.30;0.30;;;;;;;;;;7384693;19;20117;-71
2022/11/11 07:31:29;;;;;;;0.20;0.20;;;;;;;;;;7379590;19;20143;-70
2022/11/11 07:33:54;;;;;;;0.30;0.30;;;;;;;;;;7371980;19;20589;-71
2022/11/11 07:36:19;;;;;;;0.23;0.23;;;;;;;;;;7379692;19;20149;-70
2022/11/11 07:38:44;;;;;;;0.30;0.30;;;;;;;;;;7380607;19;20172;-71
2022/11/11 07:41:10;;;;;;;0.23;0.23;;;;;;;;;;7378920;19;20165;-70
2022/11/11 07:43:35;;;;;;;0.50;0.50;;;;;;;;;;7376660;19;20122;-68
2022/11/11 07:46:00;;;;;;;0.40;0.40;;;;;;;;;;7374825;19;20138;-69
2022/11/11 07:48:26;;;;;;;0.23;0.23;;;;;;;;;;7383531;19;20485;-69
2022/11/11 07:50:53;;;;;;;0.20;0.20;;;;;;;;;;7370652;19;20098;-68
2022/11/11 07:53:18;;;;;;;0.20;0.20;;;;;;;;;;7369485;19;20125;-70
2022/11/11 07:55:45;;;;;;;0.30;0.30;;;;;;;;;;7377639;19;20464;-70
2022/11/11 07:58:10;;;;;;;0.20;0.20;;;;;;;;;;7377423;19;20121;-69
2022/11/11 08:00:35;;;;;;;0.20;0.20;;;;;;;;;;7375753;19;20101;-69
2022/11/11 08:03:01;;;;;;;0.20;0.20;;;;;;;;;;7381917;19;20117;-68
2022/11/11 08:05:26;;;;;;;0.20;0.20;;;;;;;;;;7374349;19;20184;-70
2022/11/11 08:07:51;;;;;;;0.30;0.30;;;;;;;;;;7378045;19;20102;-69
2022/11/11 08:10:17;;;;;;;0.30;0.30;;;;;;;;;;7381127;19;20146;-70
2022/11/11 08:15:26;;;;;;;2.37;1.13;;;;;;;;;;7384081;19;20132;-70
2022/11/11 08:17:51;;;;;;;0.60;0.60;;;;;;;;;;7381092;19;20110;-68
2022/11/11 08:20:17;;;;;;;1.10;0.80;;;;;;;;;;7379046;19;20497;-70
2022/11/11 08:22:42;;;;;;;0.50;0.50;;;;;;;;;;7380673;19;20138;-69
2022/11/11 08:25:10;;;;;;;0.60;0.60;;;;;;;;;;7376848;19;20142;-70
2022/11/11 08:27:36;;;;;;;0.30;0.30;;;;;;;;;;7375281;19;20124;-69
2022/11/11 08:30:02;;;;;;;0.20;0.20;;;;;;;;;;7376299;19;20121;-69
2022/11/11 08:32:27;;;;;;;0.23;0.23;;;;;;;;;;7377393;19;20112;-70
2022/11/11 08:34:53;;;;;;;0.30;0.30;;;;;;;;;;7373963;19;20117;-69
2022/11/11 08:37:18;;;;;;;0.30;0.30;;;;;;;;;;7380106;19;20112;-70
2022/11/11 08:39:43;;;;;;;1.50;0.40;;;;;;;;;;7381847;19;20118;-70
2022/11/11 08:42:08;;;;;;;0.40;0.40;;;;;;;;;;7372090;19;20510;-70
2022/11/11 08:44:34;;;;;;;0.63;0.60;;;;;;;;;;7369259;19;20101;-68
2022/11/11 08:46:59;;;;;;;0.30;0.30;;;;;;;;;;7369098;19;20121;-70
2022/11/11 08:49:24;;;;;;;0.40;0.40;;;;;;;;;;7375536;19;20214;-70
2022/11/11 08:51:50;;;;;;;0.60;0.60;;;;;;;;;;7366420;19;20117;-69
2022/11/11 08:54:15;;;;;;;0.30;0.30;;;;;;;;;;7380983;19;20185;-70
2022/11/11 08:56:41;;;;;;;0.60;0.60;;;;;;;;;;7375891;19;20118;-69
2022/11/11 08:59:08;;;;;;;9.40;1.33;;;;;;;;;;7382354;19;20583;-69
2022/11/11 09:01:34;;;;;;;0.30;0.30;;;;;;;;;;7386379;19;20476;-70
2022/11/11 09:03:59;;;;;;;0.40;0.40;;;;;;;;;;7387291;19;20141;-70
2022/11/11 09:06:24;;;;;;;0.20;0.20;;;;;;;;;;7385234;19;20144;-69
2022/11/11 09:08:50;;;;;;;0.30;0.30;;;;;;;;;;7389434;19;20113;-70
2022/11/11 09:11:15;;;;;;;0.30;0.30;;;;;;;;;;7382802;19;20097;-69
2022/11/11 09:13:40;;;;;;;0.37;0.37;;;;;;;;;;7389338;19;20449;-70
2022/11/11 09:16:06;;;;;;;0.30;0.30;;;;;;;;;;7387696;19;20606;-70
2022/11/11 09:18:32;;;;;;;0.30;0.30;;;;;;;;;;7380119;19;20125;-68
2022/11/11 09:20:58;;;;;;;0.20;0.20;;;;;;;;;;7374401;19;20185;-69
2022/11/11 09:23:24;;;;;;;0.30;0.30;;;;;;;;;;7383323;19;20121;-68
2022/11/11 09:25:49;;;;;;;0.20;0.20;;;;;;;;;;7378641;19;20133;-70
2022/11/11 09:28:14;;;;;;;0.30;0.30;;;;;;;;;;7382675;19;20117;-70
2022/11/11 09:30:40;;;;;;;0.40;0.40;;;;;;;;;;7379843;19;20112;-70
2022/11/11 09:33:05;;;;;;;0.30;0.30;;;;;;;;;;7378462;19;20113;-70
2022/11/11 09:35:30;;;;;;;0.23;0.23;;;;;;;;;;7381878;19;20137;-70
2022/11/11 09:37:58;;;;;;;0.30;0.30;;;;;;;;;;7382025;19;20127;-70
2022/11/11 09:40:25;;;;;;;0.20;0.20;;;;;;;;;;7374490;19;20149;-70
2022/11/11 09:43:19;;;;;;;0.30;0.30;;;;;;;;;;7378575;19;20129;-69
2022/11/11 09:46:00;;;;;;;0.30;0.30;;;;;;;;;;7371488;19;20712;-67
2022/11/11 09:48:47;;;;;;;0.30;0.30;;;;;;;;;;7381639;19;20116;-69
2022/11/11 09:51:23;;;;;;;0.20;0.20;;;;;;;;;;7382386;19;20869;-70
2022/11/11 09:53:53;;;;;;;0.30;0.30;;;;;;;;;;7383443;19;20144;-70
2022/11/11 09:56:20;;;;;;;0.70;0.70;;;;;;;;;;7383530;19;20125;-70
2022/11/11 09:58:49;;;;;;;0.30;0.30;;;;;;;;;;7375777;19;20121;-70
2022/11/11 10:01:24;;;;;;;0.30;0.30;;;;;;;;;;7379671;19;20653;-68
2022/11/11 10:03:59;;;;;;;0.33;0.33;;;;;;;;;;7383266;19;20117;-70
2022/11/11 10:06:33;;;;;;;0.47;0.47;;;;;;;;;;7380768;19;20121;-70
2022/11/11 10:09:07;;;;;;;1.27;1.27;;;;;;;;;;7382878;19;20217;-70
2022/11/11 10:11:50;;;;;;;0.30;0.30;;;;;;;;;;7381919;19;20608;-70
2022/11/11 10:14:16;;;;;;;0.22;0.22;;;;;;;;;;7383178;19;20120;-69
2022/11/11 10:17:06;;;;;;;0.20;0.20;;;;;;;;;;7380118;19;20113;-69
2022/11/11 10:19:33;;;;;;;0.30;0.30;;;;;;;;;;7384891;19;20140;-69
2022/11/11 10:22:01;;;;;;;0.30;0.30;;;;;;;;;;7385762;19;20571;-69
2022/11/11 10:24:38;;;;;;;0.20;0.20;;;;;;;;;;7387923;19;20113;-70
2022/11/11 10:27:14;;;;;;;0.20;0.20;;;;;;;;;;7379558;19;20162;-70
2022/11/11 10:29:44;;;;;;;0.40;0.40;;;;;;;;;;7385963;19;20101;-70
2022/11/11 10:32:16;;;;;;;0.47;0.47;;;;;;;;;;7383651;19;20151;-69
2022/11/11 10:34:42;;;;;;;2.65;0.75;;;;;;;;;;7386625;19;20106;-70
2022/11/11 10:37:40;;;;;;;0.28;0.28;;;;;;;;;;7383942;19;20148;-68
2022/11/11 10:40:18;;;;;;;0.85;0.85;;;;;;;;;;7385639;19;20121;-69
2022/11/11 10:42:43;;;;;;;0.32;0.32;;;;;;;;;;7385979;19;20120;-69
2022/11/11 10:45:24;;;;;;;0.40;0.40;;;;;;;;;;7386409;19;20160;-69
2022/11/11 10:47:55;;;;;;;0.50;0.50;;;;;;;;;;7385843;19;20595;-69
2022/11/11 10:50:28;;;;;;;0.70;0.68;;;;;;;;;;7385259;19;20590;-69
2022/11/11 10:53:16;;;;;;;0.30;0.30;;;;;;;;;;7384580;19;20171;-69
2022/11/11 10:55:49;;;;;;;0.35;0.35;;;;;;;;;;7384321;19;20152;-69
2022/11/11 10:58:27;;;;;;;0.20;0.20;;;;;;;;;;7385074;19;20117;-70
2022/11/11 11:00:53;;;;;;;0.28;0.28;;;;;;;;;;7385603;19;20457;-70
2022/11/11 11:03:24;;;;;;;0.30;0.30;;;;;;;;;;7384822;19;20138;-70
2022/11/11 11:05:56;;;;;;;0.50;0.50;;;;;;;;;;7386878;19;20125;-69
2022/11/11 11:08:32;;;;;;;0.38;0.38;;;;;;;;;;7384654;19;20229;-69
2022/11/11 23:13:27;;;;;;;0.60;0.60;;;;;;;;;;7379302;19;20220;-70
2022/11/11 23:15:53;;;;;;;0.30;0.30;;;;;;;;;;7381660;19;20355;-69
2022/11/11 23:18:19;;;;;;;0.60;0.60;;;;;;;;;;7375217;19;20551;-71
2022/11/11 23:20:57;;;;;;;0.30;0.30;;;;;;;;;;7375022;19;20457;-68
2022/11/11 23:23:23;;;;;;;0.50;0.50;;;;;;;;;;7379963;19;20125;-70
2022/11/11 23:25:49;;;;;;;0.63;0.63;;;;;;;;;;7376216;19;20173;-68
2022/11/11 23:28:14;;;;;;;0.60;0.60;;;;;;;;;;7381419;19;20499;-71
2022/11/11 23:30:39;;;;;;;0.53;0.53;;;;;;;;;;7377446;19;20626;-71
2022/11/11 23:33:05;;;;;;;0.43;0.43;;;;;;;;;;7377361;19;20114;-68
2022/11/11 23:35:30;;;;;;;0.40;0.40;;;;;;;;;;7380595;19;20629;-68
2022/11/11 23:37:55;;;;;;;0.60;0.60;;;;;;;;;;7381605;19;20109;-70
2022/11/11 23:40:21;;;;;;;0.30;0.30;;;;;;;;;;7382165;19;20522;-69
2022/11/11 23:42:46;;;;;;;0.47;0.47;;;;;;;;;;7375952;19;20136;-68
2022/11/11 23:45:11;;;;;;;0.40;0.40;;;;;;;;;;7380507;19;20117;-68
2022/11/11 23:47:37;;;;;;;0.30;0.30;;;;;;;;;;7380506;19;20586;-68
2022/11/11 23:50:02;;;;;;;0.60;0.60;;;;;;;;;;7376807;19;20109;-69
2022/11/11 23:52:27;;;;;;;1.80;0.50;;;;;;;;;;7379868;19;20113;-72
2022/11/11 23:54:53;;;;;;;1.93;0.70;;;;;;;;;;7381499;19;20744;-68
2022/11/11 23:57:18;;;;;;;0.63;0.63;;;;;;;;;;7377992;19;20105;-70
2022/11/11 23:59:43;;;;;;;1.23;0.87;;;;;;;;;;7372409;19;20152;-69
